createdAt,value
2022-11-30T00:00:09.717Z,100471.25
2022-11-30T00:00:41.098Z,100466.03
2022-11-30T00:01:13.281Z,100466.78
2022-11-30T00:01:44.598Z,100465.78
2022-11-30T00:02:16.109Z,100468.56
2022-11-30T00:02:47.706Z,100466.91
2022-11-30T00:03:19.226Z,100464.22
2022-11-30T00:03:53.973Z,100468.13
2022-11-30T00:04:25.358Z,100465.19
2022-11-30T00:04:56.744Z,100468.56
2022-11-30T00:05:28.137Z,100466.78
2022-11-30T00:06:03.596Z,100464.09
2022-11-30T00:06:34.957Z,100467.72
2022-11-30T00:07:06.329Z,100465.78
2022-11-30T00:07:37.756Z,100474.78
2022-11-30T00:08:09.169Z,100469.44
2022-11-30T00:08:40.547Z,100471.09
2022-11-30T00:09:11.848Z,100475.59
2022-11-30T00:09:43.199Z,100472.22
2022-11-30T00:10:14.615Z,100457.91
2022-11-30T00:10:46.074Z,100472.09
2022-11-30T00:11:17.683Z,100467.59
2022-11-30T00:11:49.078Z,100472.94
2022-11-30T00:12:20.467Z,100471.25
2022-11-30T00:12:51.888Z,100472.94
2022-11-30T00:13:23.306Z,100472.09
2022-11-30T00:13:54.743Z,100470.78
2022-11-30T00:14:26.159Z,100471.38
2022-11-30T00:14:57.592Z,100476.56
2022-11-30T00:15:28.973Z,100464.09
2022-11-30T00:16:00.810Z,100469.44
2022-11-30T00:16:32.174Z,100471.38
2022-11-30T00:17:03.640Z,100472.09
2022-11-30T00:17:34.992Z,100475.59
2022-11-30T00:18:06.375Z,100474.91
2022-11-30T00:18:37.764Z,100471.38
2022-11-30T00:19:09.204Z,100466.91
2022-11-30T00:19:40.597Z,100471.09
2022-11-30T00:20:12.447Z,100466.16
2022-11-30T00:20:44.200Z,100470.41
2022-11-30T00:21:15.547Z,100470.53
2022-11-30T00:21:46.937Z,100476.00
2022-11-30T00:22:18.334Z,100469.56
2022-11-30T00:22:49.778Z,100467.03
2022-11-30T00:23:21.285Z,100472.22
2022-11-30T00:23:52.660Z,100466.78
2022-11-30T00:24:24.047Z,100469.44
2022-11-30T00:24:55.488Z,100467.72
2022-11-30T00:25:26.833Z,100471.25
2022-11-30T00:26:00.124Z,100466.03
2022-11-30T00:26:31.555Z,100470.41
2022-11-30T00:27:03.180Z,100465.06
2022-11-30T00:27:34.616Z,100466.91
2022-11-30T00:28:06.022Z,100464.09
2022-11-30T00:28:37.480Z,100458.78
2022-11-30T00:29:08.830Z,100463.50
2022-11-30T00:29:40.210Z,100470.53
2022-11-30T00:30:11.927Z,100465.19
2022-11-30T00:30:43.298Z,100470.41
2022-11-30T00:31:15.610Z,100459.88
2022-11-30T00:31:46.996Z,100467.72
2022-11-30T00:32:18.387Z,100462.41
2022-11-30T00:32:49.758Z,100464.34
2022-11-30T00:33:21.126Z,100469.69
2022-11-30T00:33:52.455Z,100468.00
2022-11-30T00:34:23.783Z,100469.81
2022-11-30T00:34:55.122Z,100468.81
2022-11-30T00:35:26.522Z,100462.66
2022-11-30T00:36:00.802Z,100467.16
2022-11-30T00:36:32.145Z,100474.03
2022-11-30T00:37:03.583Z,100475.88
2022-11-30T00:37:35.395Z,100467.72
2022-11-30T00:38:06.769Z,100469.69
2022-11-30T00:38:38.199Z,100468.81
2022-11-30T00:39:09.547Z,100467.88
2022-11-30T00:39:40.920Z,100471.38
2022-11-30T00:40:12.538Z,100471.38
2022-11-30T00:40:43.924Z,100465.06
2022-11-30T00:41:15.611Z,100466.03
2022-11-30T00:41:46.972Z,100471.38
2022-11-30T00:42:18.325Z,100468.69
2022-11-30T00:42:49.783Z,100471.38
2022-11-30T00:43:21.235Z,100466.91
2022-11-30T00:43:52.612Z,100465.19
2022-11-30T00:44:23.951Z,100474.16
2022-11-30T00:44:55.321Z,100460.69
2022-11-30T00:45:26.783Z,100473.06
2022-11-30T00:45:58.169Z,100466.03
2022-11-30T00:46:29.625Z,100468.69
2022-11-30T00:47:00.989Z,100463.63
2022-11-30T00:47:32.382Z,100469.81
2022-11-30T00:48:03.868Z,100471.28
2022-11-30T00:48:35.559Z,100466.97
2022-11-30T00:49:06.943Z,100466.34
2022-11-30T00:49:38.259Z,100469.16
2022-11-30T00:50:09.834Z,100468.16
2022-11-30T00:50:41.437Z,100470.47
2022-11-30T00:51:12.827Z,100471.03
2022-11-30T00:51:44.198Z,100471.91
2022-11-30T00:52:15.639Z,100470.78
2022-11-30T00:52:47.052Z,100468.00
2022-11-30T00:53:18.498Z,100472.50
2022-11-30T00:53:49.901Z,100464.34
2022-11-30T00:54:21.330Z,100472.38
2022-11-30T00:54:52.718Z,100467.88
2022-11-30T00:55:24.079Z,100471.50
2022-11-30T00:55:55.440Z,100468.94
2022-11-30T00:56:26.842Z,100467.16
2022-11-30T00:56:58.271Z,100460.81
2022-11-30T00:57:29.641Z,100467.03
2022-11-30T00:58:01.135Z,100461.69
2022-11-30T00:58:32.548Z,100462.66
2022-11-30T00:59:03.992Z,100475.03
2022-11-30T00:59:35.336Z,100461.81
2022-11-30T01:00:07.059Z,100464.34
2022-11-30T01:00:38.413Z,100461.69
2022-11-30T01:01:09.843Z,100465.19
2022-11-30T01:01:41.299Z,100459.03
2022-11-30T01:02:12.713Z,100460.00
2022-11-30T01:02:44.195Z,100457.19
2022-11-30T01:03:15.638Z,100453.69
2022-11-30T01:03:47.034Z,100464.34
2022-11-30T01:04:18.369Z,100453.69
2022-11-30T01:04:49.772Z,100459.88
2022-11-30T01:05:21.146Z,100452.00
2022-11-30T01:05:52.486Z,100454.78
2022-11-30T01:06:23.938Z,100459.88
2022-11-30T01:06:55.260Z,100459.75
2022-11-30T01:07:26.694Z,100459.88
2022-11-30T01:07:59.548Z,100464.63
2022-11-30T01:08:31.007Z,100463.91
2022-11-30T01:09:02.431Z,100464.50
2022-11-30T01:09:33.810Z,100462.91
2022-11-30T01:10:05.516Z,100460.13
2022-11-30T01:10:38.028Z,100464.50
2022-11-30T01:11:13.338Z,100457.31
2022-11-30T01:11:44.771Z,100465.44
2022-11-30T01:12:16.138Z,100466.69
2022-11-30T01:12:47.539Z,100461.00
2022-11-30T01:13:18.966Z,100462.97
2022-11-30T01:13:50.424Z,100461.75
2022-11-30T01:14:21.743Z,100464.88
2022-11-30T01:14:53.148Z,100463.03
2022-11-30T01:15:24.570Z,100475.28
2022-11-30T01:15:55.954Z,100468.25
2022-11-30T01:16:28.480Z,100475.28
2022-11-30T01:16:59.865Z,100469.94
2022-11-30T01:17:31.259Z,100472.63
2022-11-30T01:18:02.632Z,100464.63
2022-11-30T01:18:35.812Z,100465.44
2022-11-30T01:19:07.171Z,100467.16
2022-11-30T01:19:38.502Z,100464.75
2022-11-30T01:20:10.023Z,100471.63
2022-11-30T01:20:41.785Z,100478.66
2022-11-30T01:21:13.887Z,100467.88
2022-11-30T01:21:45.244Z,100473.59
2022-11-30T01:22:16.637Z,100477.25
2022-11-30T01:22:48.128Z,100476.25
2022-11-30T01:23:19.482Z,100474.28
2022-11-30T01:23:51.038Z,100470.66
2022-11-30T01:24:22.416Z,100473.31
2022-11-30T01:24:53.758Z,100475.28
2022-11-30T01:25:25.221Z,100473.31
2022-11-30T01:25:56.673Z,100474.16
2022-11-30T01:26:28.152Z,100475.16
2022-11-30T01:26:59.491Z,100476.13
2022-11-30T01:27:30.918Z,100473.31
2022-11-30T01:28:02.396Z,100476.81
2022-11-30T01:28:33.812Z,100476.97
2022-11-30T01:29:05.192Z,100476.13
2022-11-30T01:29:36.581Z,100469.94
2022-11-30T01:30:08.101Z,100473.59
2022-11-30T01:30:39.524Z,100476.63
2022-11-30T01:31:12.140Z,100480.88
2022-11-30T01:31:43.499Z,100478.47
2022-11-30T01:32:14.814Z,100481.13
2022-11-30T01:32:46.208Z,100487.91
2022-11-30T01:33:17.567Z,100482.28
2022-11-30T01:33:49.638Z,100485.69
2022-11-30T01:34:20.975Z,100478.66
2022-11-30T01:34:52.308Z,100485.69
2022-11-30T01:35:23.585Z,100482.56
2022-11-30T01:36:07.697Z,100479.91
2022-11-30T01:36:39.062Z,100480.63
2022-11-30T01:37:10.518Z,100476.97
2022-11-30T01:37:41.893Z,100476.97
2022-11-30T01:38:13.257Z,100474.16
2022-11-30T01:38:50.435Z,100478.53
2022-11-30T01:39:21.775Z,100478.66
2022-11-30T01:39:53.078Z,100471.63
2022-11-30T01:40:24.425Z,100474.16
2022-11-30T01:40:55.837Z,100480.38
2022-11-30T01:41:28.005Z,100475.03
2022-11-30T01:41:59.379Z,100468.25
2022-11-30T01:42:30.681Z,100468.94
2022-11-30T01:43:01.980Z,100472.63
2022-11-30T01:43:43.570Z,100472.63
2022-11-30T01:44:19.553Z,100480.63
2022-11-30T01:44:57.937Z,100475.03
2022-11-30T01:45:29.263Z,100482.28
2022-11-30T01:46:00.759Z,100478.66
2022-11-30T01:46:52.417Z,100478.78
2022-11-30T01:47:56.226Z,100479.50
2022-11-30T01:48:27.592Z,100475.16
2022-11-30T01:49:25.020Z,100482.28
2022-11-30T01:49:58.191Z,100478.66
2022-11-30T01:50:30.648Z,100485.81
2022-11-30T01:51:02.014Z,100479.50
2022-11-30T01:51:36.700Z,100476.00
2022-11-30T01:52:09.382Z,100481.31
2022-11-30T01:52:43.728Z,100484.94
2022-11-30T01:53:15.042Z,100485.94
2022-11-30T01:53:46.349Z,100485.09
2022-11-30T01:54:18.998Z,100483.41
2022-11-30T01:54:52.004Z,100486.06
2022-11-30T01:55:33.752Z,100485.09
2022-11-30T01:56:05.393Z,100477.09
2022-11-30T01:56:37.564Z,100478.78
2022-11-30T01:57:21.269Z,100479.63
2022-11-30T01:57:54.694Z,100488.63
2022-11-30T01:58:26.683Z,100484.13
2022-11-30T01:58:58.110Z,100483.28
2022-11-30T01:59:29.586Z,100482.28
2022-11-30T02:00:01.097Z,100485.94
2022-11-30T02:00:32.580Z,100476.97
2022-11-30T02:01:04.059Z,100485.81
2022-11-30T02:01:35.539Z,100480.50
2022-11-30T02:02:07.083Z,100485.81
2022-11-30T02:02:47.606Z,100492.97
2022-11-30T02:03:26.380Z,100487.91
2022-11-30T02:04:16.201Z,100485.09
2022-11-30T02:04:48.014Z,100492.13
2022-11-30T02:05:19.700Z,100485.94
2022-11-30T02:05:51.122Z,100489.44
2022-11-30T02:06:22.615Z,100485.25
2022-11-30T02:06:54.054Z,100479.75
2022-11-30T02:07:25.583Z,100487.91
2022-11-30T02:07:57.146Z,100485.09
2022-11-30T02:08:28.712Z,100485.09
2022-11-30T02:09:00.122Z,100484.25
2022-11-30T02:09:31.569Z,100484.25
2022-11-30T02:10:02.973Z,100484.25
2022-11-30T02:10:41.372Z,100480.75
2022-11-30T02:11:13.040Z,100488.88
2022-11-30T02:11:44.502Z,100478.91
2022-11-30T02:12:19.838Z,100480.75
2022-11-30T02:12:51.170Z,100484.25
2022-11-30T02:13:40.555Z,100479.91
2022-11-30T02:14:15.854Z,100484.25
2022-11-30T02:14:48.323Z,100483.28
2022-11-30T02:15:21.191Z,100480.75
2022-11-30T02:16:01.796Z,100481.44
2022-11-30T02:16:52.176Z,100478.91
2022-11-30T02:17:46.491Z,100478.91
2022-11-30T02:18:20.041Z,100473.84
2022-11-30T02:18:51.369Z,100482.56
2022-11-30T02:19:31.640Z,100479.03
2022-11-30T02:20:13.687Z,100481.13
2022-11-30T02:20:44.945Z,100476.03
2022-11-30T02:21:16.399Z,100473.97
2022-11-30T02:21:50.577Z,100470.19
2022-11-30T02:22:34.072Z,100474.56
2022-11-30T02:23:27.345Z,100473.59
2022-11-30T02:24:17.055Z,100477.09
2022-11-30T02:24:48.625Z,100470.06
2022-11-30T02:25:20.268Z,100473.59
2022-11-30T02:25:51.661Z,100466.56
2022-11-30T02:26:23.000Z,100475.53
2022-11-30T02:27:03.548Z,100469.38
2022-11-30T02:27:40.612Z,100470.59
2022-11-30T02:28:17.809Z,100468.38
2022-11-30T02:29:07.614Z,100463.91
2022-11-30T02:29:55.523Z,100469.09
2022-11-30T02:30:26.845Z,100468.25
2022-11-30T02:30:58.247Z,100469.09
2022-11-30T02:31:35.554Z,100471.91
2022-11-30T02:32:08.569Z,100467.41
2022-11-30T02:32:42.174Z,100470.91
2022-11-30T02:33:14.692Z,100467.41
2022-11-30T02:33:46.017Z,100464.88
2022-11-30T02:34:17.519Z,100473.84
2022-11-30T02:34:49.307Z,100465.13
2022-11-30T02:35:21.662Z,100466.81
2022-11-30T02:35:55.256Z,100457.00
2022-11-30T02:36:26.961Z,100459.53
2022-11-30T02:36:58.509Z,100463.41
2022-11-30T02:37:29.841Z,100461.50
2022-11-30T02:38:01.234Z,100463.16
2022-11-30T02:38:32.590Z,100466.56
2022-11-30T02:39:04.278Z,100462.06
2022-11-30T02:39:35.641Z,100464.75
2022-11-30T02:40:10.407Z,100463.16
2022-11-30T02:40:41.755Z,100458.81
2022-11-30T02:41:13.348Z,100461.25
2022-11-30T02:41:44.715Z,100459.53
2022-11-30T02:42:16.173Z,100469.09
2022-11-30T02:42:47.927Z,100470.19
2022-11-30T02:43:22.654Z,100468.38
2022-11-30T02:43:54.057Z,100464.88
2022-11-30T02:44:25.543Z,100465.72
2022-11-30T02:44:56.899Z,100464.88
2022-11-30T02:45:30.500Z,100461.25
2022-11-30T02:46:02.155Z,100466.56
2022-11-30T02:46:39.920Z,100467.53
2022-11-30T02:47:11.517Z,100471.91
2022-11-30T02:47:42.970Z,100472.88
2022-11-30T02:48:14.856Z,100470.19
2022-11-30T02:48:49.054Z,100472.75
2022-11-30T02:49:26.674Z,100468.50
2022-11-30T02:50:07.022Z,100471.28
2022-11-30T02:50:42.602Z,100467.91
2022-11-30T02:51:14.488Z,100465.97
2022-11-30T02:51:45.850Z,100469.00
2022-11-30T02:52:17.244Z,100471.84
2022-11-30T02:52:49.337Z,100463.97
2022-11-30T02:53:20.711Z,100469.88
2022-11-30T02:53:52.068Z,100477.50
2022-11-30T02:54:23.648Z,100469.38
2022-11-30T02:55:20.952Z,100472.16
2022-11-30T02:55:53.248Z,100470.19
2022-11-30T02:56:24.639Z,100472.03
2022-11-30T02:56:55.981Z,100472.88
2022-11-30T02:57:27.389Z,100479.28
2022-11-30T02:57:58.736Z,100476.50
2022-11-30T02:58:30.119Z,100472.16
2022-11-30T02:59:01.498Z,100473.25
2022-11-30T02:59:33.046Z,100474.09
2022-11-30T03:00:05.301Z,100473.38
2022-11-30T03:00:36.652Z,100480.53
2022-11-30T03:01:08.119Z,100482.94
2022-11-30T03:01:39.648Z,100480.66
2022-11-30T03:02:11.073Z,100476.41
2022-11-30T03:02:42.560Z,100480.34
2022-11-30T03:03:13.987Z,100482.34
2022-11-30T03:03:45.306Z,100483.91
2022-11-30T03:04:16.633Z,100477.50
2022-11-30T03:04:48.130Z,100486.47
2022-11-30T03:05:19.620Z,100485.50
2022-11-30T03:05:51.476Z,100479.16
2022-11-30T03:06:22.855Z,100483.78
2022-11-30T03:06:54.158Z,100481.25
2022-11-30T03:07:25.526Z,100480.16
2022-11-30T03:07:56.942Z,100480.88
2022-11-30T03:08:28.332Z,100488.88
2022-11-30T03:08:59.712Z,100480.88
2022-11-30T03:09:31.044Z,100483.41
2022-11-30T03:10:02.376Z,100482.69
2022-11-30T03:10:33.734Z,100486.91
2022-11-30T03:11:05.350Z,100482.56
2022-11-30T03:11:36.718Z,100487.91
2022-11-30T03:12:08.072Z,100485.50
2022-11-30T03:12:39.381Z,100476.63
2022-11-30T03:13:10.799Z,100485.38
2022-11-30T03:13:42.174Z,100484.38
2022-11-30T03:14:13.543Z,100481.69
2022-11-30T03:14:45.160Z,100484.38
2022-11-30T03:15:16.956Z,100489.25
2022-11-30T03:15:48.419Z,100488.41
2022-11-30T03:16:19.813Z,100488.41
2022-11-30T03:16:51.211Z,100489.13
2022-11-30T03:17:22.579Z,100491.66
2022-11-30T03:17:53.971Z,100496.41
2022-11-30T03:18:25.361Z,100491.78
2022-11-30T03:18:59.642Z,100498.69
2022-11-30T03:19:30.964Z,100490.81
2022-11-30T03:20:02.322Z,100491.66
2022-11-30T03:20:33.711Z,100498.09
2022-11-30T03:21:08.199Z,100492.50
2022-11-30T03:21:39.569Z,100493.50
2022-11-30T03:22:10.908Z,100495.16
2022-11-30T03:22:42.302Z,100497.25
2022-11-30T03:23:13.662Z,100495.41
2022-11-30T03:23:45.023Z,100497.84
2022-11-30T03:24:16.351Z,100494.47
2022-11-30T03:24:47.989Z,100494.34
2022-11-30T03:25:19.546Z,100491.53
2022-11-30T03:25:50.887Z,100488.88
2022-11-30T03:26:22.238Z,100490.09
2022-11-30T03:26:53.637Z,100492.03
2022-11-30T03:27:24.991Z,100488.78
2022-11-30T03:27:56.425Z,100491.91
2022-11-30T03:28:27.774Z,100486.31
2022-11-30T03:28:59.127Z,100492.50
2022-11-30T03:29:30.556Z,100492.50
2022-11-30T03:30:01.922Z,100486.47
2022-11-30T03:30:33.348Z,100488.28
2022-11-30T03:31:04.743Z,100490.81
2022-11-30T03:31:36.087Z,100493.38
2022-11-30T03:32:07.469Z,100491.78
2022-11-30T03:32:38.855Z,100493.00
2022-11-30T03:33:10.193Z,100493.16
2022-11-30T03:34:12.847Z,100490.94
2022-11-30T03:34:44.457Z,100487.66
2022-11-30T03:35:16.050Z,100490.63
2022-11-30T03:35:47.432Z,100498.50
2022-11-30T03:36:18.763Z,100494.59
2022-11-30T03:36:50.141Z,100496.41
2022-11-30T03:37:21.632Z,100493.63
2022-11-30T03:37:52.931Z,100494.34
2022-11-30T03:38:24.282Z,100489.13
2022-11-30T03:38:55.678Z,100504.88
2022-11-30T03:39:27.062Z,100491.53
2022-11-30T03:39:58.676Z,100494.19
2022-11-30T03:40:30.046Z,100501.50
2022-11-30T03:41:11.361Z,100497.13
2022-11-30T03:41:42.726Z,100499.53
2022-11-30T03:42:14.117Z,100503.91
2022-11-30T03:43:17.027Z,100494.00
2022-11-30T03:43:48.418Z,100495.66
2022-11-30T03:44:19.762Z,100497.50
2022-11-30T03:44:51.493Z,100496.66
2022-11-30T03:45:22.867Z,100499.22
2022-11-30T03:45:54.417Z,100494.72
2022-11-30T03:46:25.806Z,100500.75
2022-11-30T03:46:57.305Z,100506.09
2022-11-30T03:47:28.682Z,100499.22
2022-11-30T03:48:00.150Z,100503.94
2022-11-30T03:48:31.657Z,100498.88
2022-11-30T03:49:03.184Z,100503.22
2022-11-30T03:49:34.542Z,100497.03
2022-11-30T03:50:06.322Z,100505.63
2022-11-30T03:50:37.685Z,100510.72
2022-11-30T03:51:09.480Z,100508.28
2022-11-30T03:51:40.923Z,100507.81
2022-11-30T03:52:12.291Z,100506.53
2022-11-30T03:52:43.694Z,100516.66
2022-11-30T03:53:15.549Z,100513.63
2022-11-30T03:53:47.101Z,100513.38
2022-11-30T03:54:18.540Z,100518.59
2022-11-30T03:54:49.971Z,100510.84
2022-11-30T03:55:21.390Z,100513.63
2022-11-30T03:55:56.436Z,100515.31
2022-11-30T03:56:27.756Z,100517.16
2022-11-30T03:56:59.116Z,100515.56
2022-11-30T03:57:30.447Z,100513.88
2022-11-30T03:58:01.906Z,100515.69
2022-11-30T03:58:33.287Z,100514.13
2022-11-30T03:59:04.630Z,100519.22
2022-11-30T03:59:35.951Z,100510.00
2022-11-30T04:00:07.676Z,100511.94
2022-11-30T04:00:39.126Z,100513.03
2022-11-30T04:01:11.854Z,100509.41
2022-11-30T04:01:43.251Z,100504.78
2022-11-30T04:02:14.561Z,100513.63
2022-11-30T04:02:45.899Z,100511.94
2022-11-30T04:03:17.463Z,100511.81
2022-11-30T04:03:49.270Z,100517.28
2022-11-30T04:04:20.641Z,100519.81
2022-11-30T04:04:52.008Z,100519.22
2022-11-30T04:05:23.390Z,100515.31
2022-11-30T04:05:54.749Z,100516.16
2022-11-30T04:06:26.042Z,100511.94
2022-11-30T04:06:57.423Z,100518.97
2022-11-30T04:07:28.918Z,100519.81
2022-11-30T04:08:00.363Z,100519.94
2022-11-30T04:08:32.006Z,100523.31
2022-11-30T04:09:03.502Z,100522.34
2022-11-30T04:09:34.960Z,100516.03
2022-11-30T04:10:08.575Z,100515.91
2022-11-30T04:10:40.219Z,100522.09
2022-11-30T04:11:11.586Z,100518.44
2022-11-30T04:11:43.031Z,100520.88
2022-11-30T04:12:14.548Z,100519.28
2022-11-30T04:12:45.877Z,100518.84
2022-11-30T04:13:17.341Z,100517.28
2022-11-30T04:13:48.679Z,100517.28
2022-11-30T04:14:20.100Z,100526.00
2022-11-30T04:14:51.416Z,100522.63
2022-11-30T04:15:22.877Z,100519.66
2022-11-30T04:15:54.494Z,100516.03
2022-11-30T04:16:25.955Z,100526.56
2022-11-30T04:16:57.276Z,100528.28
2022-11-30T04:17:28.788Z,100526.56
2022-11-30T04:18:00.184Z,100521.25
2022-11-30T04:18:31.890Z,100529.00
2022-11-30T04:19:03.219Z,100523.31
2022-11-30T04:20:06.538Z,100522.34
2022-11-30T04:20:40.565Z,100529.25
2022-11-30T04:21:12.318Z,100523.44
2022-11-30T04:21:43.688Z,100521.50
2022-11-30T04:22:15.089Z,100525.00
2022-11-30T04:22:46.648Z,100525.75
2022-11-30T04:23:18.065Z,100527.41
2022-11-30T04:23:49.422Z,100528.28
2022-11-30T04:24:20.946Z,100522.94
2022-11-30T04:24:52.254Z,100524.63
2022-11-30T04:25:23.813Z,100527.28
2022-11-30T04:25:55.186Z,100525.63
2022-11-30T04:26:26.680Z,100529.13
2022-11-30T04:26:58.189Z,100532.75
2022-11-30T04:27:29.616Z,100528.28
2022-11-30T04:28:00.967Z,100525.50
2022-11-30T04:28:32.400Z,100530.81
2022-11-30T04:29:04.784Z,100530.81
2022-11-30T04:29:36.320Z,100531.53
2022-11-30T04:30:08.026Z,100519.28
2022-11-30T04:30:39.529Z,100525.50
2022-11-30T04:31:11.014Z,100530.81
2022-11-30T04:31:42.477Z,100529.13
2022-11-30T04:32:14.053Z,100531.66
2022-11-30T04:32:45.518Z,100533.38
2022-11-30T04:33:17.011Z,100525.38
2022-11-30T04:33:48.350Z,100534.19
2022-11-30T04:34:19.705Z,100532.50
2022-11-30T04:34:51.103Z,100528.88
2022-11-30T04:35:22.494Z,100528.16
2022-11-30T04:35:54.950Z,100528.16
2022-11-30T04:36:26.332Z,100527.16
2022-11-30T04:37:00.431Z,100522.69
2022-11-30T04:37:32.071Z,100529.00
2022-11-30T04:38:03.587Z,100532.50
2022-11-30T04:38:35.925Z,100533.50
2022-11-30T04:39:07.257Z,100535.16
2022-11-30T04:39:38.664Z,100534.19
2022-11-30T04:40:10.286Z,100544.03
2022-11-30T04:40:41.929Z,100534.19
2022-11-30T04:41:13.312Z,100538.69
2022-11-30T04:41:44.655Z,100541.50
2022-11-30T04:42:16.012Z,100537.84
2022-11-30T04:42:47.434Z,100538.09
2022-11-30T04:43:18.814Z,100541.50
2022-11-30T04:43:50.325Z,100538.81
2022-11-30T04:44:21.670Z,100540.63
2022-11-30T04:44:53.029Z,100544.16
2022-11-30T04:45:24.422Z,100537.00
2022-11-30T04:45:55.891Z,100536.41
2022-11-30T04:46:27.294Z,100536.16
2022-11-30T04:46:58.841Z,100541.38
2022-11-30T04:47:30.494Z,100537.84
2022-11-30T04:48:02.066Z,100540.38
2022-11-30T04:48:33.395Z,100536.88
2022-11-30T04:49:04.711Z,100537.00
2022-11-30T04:49:36.273Z,100541.25
2022-11-30T04:50:07.716Z,100542.19
2022-11-30T04:50:39.081Z,100544.88
2022-11-30T04:51:10.460Z,100545.00
2022-11-30T04:51:41.830Z,100541.38
2022-11-30T04:52:13.232Z,100537.97
2022-11-30T04:52:44.668Z,100544.03
2022-11-30T04:53:16.106Z,100540.63
2022-11-30T04:53:47.515Z,100542.31
2022-11-30T04:54:18.942Z,100534.44
2022-11-30T04:54:50.529Z,100540.50
2022-11-30T04:55:21.866Z,100543.16
2022-11-30T04:55:53.243Z,100544.28
2022-11-30T04:56:24.685Z,100546.81
2022-11-30T04:56:56.058Z,100538.69
2022-11-30T04:57:27.467Z,100542.31
2022-11-30T04:57:58.888Z,100537.00
2022-11-30T04:58:30.249Z,100545.72
2022-11-30T04:59:01.936Z,100545.72
2022-11-30T04:59:33.329Z,100544.75
2022-11-30T05:00:05.518Z,100547.06
2022-11-30T05:00:37.078Z,100549.88
2022-11-30T05:01:39.644Z,100540.03
2022-11-30T05:02:11.066Z,100545.13
2022-11-30T05:02:45.323Z,100541.50
2022-11-30T05:03:19.063Z,100549.50
2022-11-30T05:03:50.431Z,100551.28
2022-11-30T05:04:21.771Z,100547.66
2022-11-30T05:04:53.205Z,100549.38
2022-11-30T05:05:24.620Z,100551.16
2022-11-30T05:05:55.999Z,100545.72
2022-11-30T05:06:27.404Z,100548.38
2022-11-30T05:06:58.758Z,100544.88
2022-11-30T05:07:30.156Z,100545.84
2022-11-30T05:08:01.720Z,100550.31
2022-11-30T05:08:33.160Z,100546.81
2022-11-30T05:09:04.519Z,100553.00
2022-11-30T05:09:35.923Z,100546.69
2022-11-30T05:10:07.583Z,100549.25
2022-11-30T05:10:39.015Z,100554.69
2022-11-30T05:11:10.450Z,100548.50
2022-11-30T05:11:41.786Z,100545.00
2022-11-30T05:12:13.123Z,100547.53
2022-11-30T05:12:44.497Z,100551.03
2022-11-30T05:13:15.917Z,100552.16
2022-11-30T05:13:47.248Z,100553.81
2022-11-30T05:14:18.702Z,100549.38
2022-11-30T05:14:50.144Z,100550.19
2022-11-30T05:15:21.508Z,100553.81
2022-11-30T05:15:52.941Z,100549.50
2022-11-30T05:16:24.361Z,100551.41
2022-11-30T05:16:55.779Z,100550.44
2022-11-30T05:17:27.138Z,100553.13
2022-11-30T05:17:59.057Z,100547.78
2022-11-30T05:18:30.463Z,100553.00
2022-11-30T05:19:01.867Z,100548.63
2022-11-30T05:19:33.236Z,100550.44
2022-11-30T05:20:04.884Z,100551.41
2022-11-30T05:20:36.246Z,100550.44
2022-11-30T05:21:07.637Z,100549.38
2022-11-30T05:21:44.061Z,100559.16
2022-11-30T05:22:17.036Z,100546.69
2022-11-30T05:22:48.732Z,100553.81
2022-11-30T05:23:20.183Z,100549.50
2022-11-30T05:23:51.535Z,100547.66
2022-11-30T05:24:22.906Z,100553.13
2022-11-30T05:24:54.276Z,100553.13
2022-11-30T05:25:25.580Z,100557.50
2022-11-30T05:25:56.886Z,100554.94
2022-11-30T05:26:28.215Z,100553.13
2022-11-30T05:26:59.535Z,100553.94
2022-11-30T05:27:30.861Z,100555.78
2022-11-30T05:28:02.196Z,100557.50
2022-11-30T05:28:33.646Z,100554.94
2022-11-30T05:29:05.093Z,100552.16
2022-11-30T05:29:36.499Z,100553.81
2022-11-30T05:30:08.176Z,100561.84
2022-11-30T05:30:39.989Z,100556.63
2022-11-30T05:31:11.383Z,100559.16
2022-11-30T05:31:42.765Z,100555.53
2022-11-30T05:32:14.105Z,100556.50
2022-11-30T05:32:45.468Z,100561.13
2022-11-30T05:33:16.871Z,100563.53
2022-11-30T05:33:51.589Z,100558.19
2022-11-30T05:34:22.997Z,100560.16
2022-11-30T05:34:54.589Z,100554.06
2022-11-30T05:35:26.270Z,100560.28
2022-11-30T05:35:57.647Z,100561.94
2022-11-30T05:36:29.025Z,100560.28
2022-11-30T05:37:00.369Z,100560.16
2022-11-30T05:37:31.762Z,100564.75
2022-11-30T05:38:03.196Z,100562.94
2022-11-30T05:38:34.558Z,100557.50
2022-11-30T05:39:05.842Z,100559.28
2022-11-30T05:39:37.193Z,100560.28
2022-11-30T05:40:08.898Z,100561.94
2022-11-30T05:40:40.248Z,100559.28
2022-11-30T05:41:11.606Z,100560.28
2022-11-30T05:41:42.976Z,100556.75
2022-11-30T05:42:14.349Z,100562.81
2022-11-30T05:42:45.709Z,100557.63
2022-11-30T05:43:17.056Z,100563.66
2022-11-30T05:43:48.483Z,100560.28
2022-11-30T05:44:19.920Z,100556.75
2022-11-30T05:44:51.342Z,100564.75
2022-11-30T05:45:22.807Z,100562.81
2022-11-30T05:46:00.497Z,100559.28
2022-11-30T05:46:31.936Z,100564.50
2022-11-30T05:47:03.421Z,100561.13
2022-11-30T05:47:34.881Z,100561.13
2022-11-30T05:48:06.219Z,100564.75
2022-11-30T05:48:37.609Z,100557.63
2022-11-30T05:49:09.048Z,100560.41
2022-11-30T05:49:40.397Z,100562.81
2022-11-30T05:50:11.700Z,100555.78
2022-11-30T05:50:42.997Z,100564.75
2022-11-30T05:51:14.984Z,100557.50
2022-11-30T05:51:46.321Z,100561.13
2022-11-30T05:52:17.650Z,100560.28
2022-11-30T05:52:48.990Z,100561.94
2022-11-30T05:53:20.376Z,100561.13
2022-11-30T05:53:51.756Z,100564.75
2022-11-30T05:54:23.193Z,100557.63
2022-11-30T05:54:54.612Z,100554.06
2022-11-30T05:55:26.010Z,100564.75
2022-11-30T05:55:57.450Z,100557.63
2022-11-30T05:56:28.761Z,100561.13
2022-11-30T05:57:00.115Z,100561.13
2022-11-30T05:57:31.417Z,100559.41
2022-11-30T05:58:02.777Z,100552.28
2022-11-30T05:58:34.106Z,100557.63
2022-11-30T05:59:05.467Z,100560.28
2022-11-30T05:59:36.880Z,100559.41
2022-11-30T06:00:08.858Z,100560.28
2022-11-30T06:00:40.183Z,100563.06
2022-11-30T06:01:18.438Z,100560.28
2022-11-30T06:01:51.534Z,100560.28
2022-11-30T06:02:27.939Z,100555.78
2022-11-30T06:02:59.707Z,100559.28
2022-11-30T06:03:31.636Z,100563.66
2022-11-30T06:04:08.927Z,100566.31
2022-11-30T06:04:40.542Z,100560.28
2022-11-30T06:05:11.876Z,100554.06
2022-11-30T06:05:43.304Z,100558.56
2022-11-30T06:06:14.731Z,100561.13
2022-11-30T06:06:46.073Z,100561.25
2022-11-30T06:07:17.469Z,100560.41
2022-11-30T06:07:48.902Z,100561.13
2022-11-30T06:08:20.251Z,100559.28
2022-11-30T06:08:51.634Z,100559.41
2022-11-30T06:09:23.088Z,100558.69
2022-11-30T06:09:54.450Z,100560.28
2022-11-30T06:10:25.778Z,100560.28